createdAt,value
2022-09-09T00:00:55.713Z,0.60
2022-09-09T00:04:00.478Z,0.40
2022-09-09T00:07:06.882Z,0.47
2022-09-09T00:10:17.940Z,0.52
2022-09-09T00:13:26.248Z,0.50
2022-09-09T00:16:42.774Z,0.63
2022-09-09T00:19:57.238Z,0.57
2022-09-09T00:23:12.702Z,0.60
2022-09-09T00:26:32.841Z,0.40
2022-09-09T00:29:56.355Z,0.70
2022-09-09T00:33:14.086Z,0.60
2022-09-09T00:36:41.688Z,0.68
2022-09-09T00:40:08.437Z,0.63
2022-09-09T00:43:22.795Z,1.00
2022-09-09T00:46:55.787Z,0.50
2022-09-09T00:50:34.019Z,0.90
2022-09-09T00:54:07.448Z,0.60
2022-09-09T00:57:31.253Z,0.43
2022-09-09T01:00:43.299Z,0.60
2022-09-09T01:04:11.109Z,0.70
2022-09-09T01:07:20.495Z,1.10
2022-09-09T01:10:54.417Z,0.82
2022-09-09T01:14:32.857Z,0.70
2022-09-09T01:18:02.687Z,0.73
2022-09-09T01:21:36.503Z,0.63
2022-09-09T01:25:07.436Z,0.98
2022-09-09T01:28:29.869Z,0.75
2022-09-09T01:31:59.045Z,0.80
2022-09-09T01:35:22.126Z,0.90
2022-09-09T01:38:39.733Z,1.02
2022-09-09T01:41:51.838Z,1.20
2022-09-09T01:45:13.457Z,1.10
2022-09-09T01:48:15.688Z,0.82
2022-09-09T01:51:26.844Z,0.98
2022-09-09T01:54:37.689Z,1.00
2022-09-09T01:58:38.584Z,0.88
2022-09-09T02:02:39.097Z,1.35
2022-09-09T02:06:06.743Z,1.27
2022-09-09T02:09:18.189Z,1.40
2022-09-09T02:12:22.279Z,1.65
2022-09-09T02:15:59.613Z,1.08
2022-09-09T02:19:08.670Z,1.00
2022-09-09T02:22:27.542Z,1.30
2022-09-09T02:25:33.010Z,1.92
2022-09-09T02:28:44.902Z,1.77
2022-09-09T02:31:50.199Z,1.50
2022-09-09T02:35:05.629Z,1.50
2022-09-09T02:38:11.959Z,1.48
2022-09-09T02:41:15.936Z,1.50
2022-09-09T02:44:19.514Z,1.48
2022-09-09T02:47:31.306Z,1.25
2022-09-09T02:50:52.684Z,1.55
2022-09-09T02:54:00.408Z,1.30
2022-09-09T02:57:15.464Z,1.95
2022-09-09T03:00:25.574Z,2.38
2022-09-09T03:03:28.293Z,1.50
2022-09-09T03:06:31.917Z,1.85
2022-09-09T03:09:43.150Z,1.83
2022-09-09T03:12:45.899Z,1.60
2022-09-09T03:15:49.825Z,1.63
2022-09-09T03:18:56.128Z,1.63
2022-09-09T03:21:59.401Z,1.40
2022-09-09T03:25:02.078Z,0.98
2022-09-09T03:28:07.274Z,1.60
2022-09-09T03:31:11.705Z,1.02
2022-09-09T03:34:20.433Z,1.40
2022-09-09T03:37:23.888Z,1.30
2022-09-09T03:40:27.324Z,1.30
2022-09-09T03:43:30.838Z,1.30
2022-09-09T03:46:36.803Z,1.38
2022-09-09T03:50:36.804Z,1.40
2022-09-09T03:54:01.187Z,1.10
2022-09-09T04:06:32.977Z,1.20
2022-09-09T04:10:14.336Z,1.45
2022-09-09T04:13:41.490Z,1.40
2022-09-09T04:17:11.403Z,1.50
2022-09-09T04:20:56.123Z,1.40
2022-09-09T04:24:01.326Z,1.33
2022-09-09T04:27:03.678Z,1.20
2022-09-09T04:30:20.390Z,1.05
2022-09-09T04:34:29.983Z,1.03
2022-09-09T04:41:59.560Z,1.23
2022-09-09T04:48:47.175Z,1.40
2022-09-09T04:52:15.392Z,1.30
2022-09-09T05:00:22.032Z,1.48
2022-09-09T05:03:26.381Z,2.10
2022-09-09T05:06:35.714Z,2.00
2022-09-09T05:09:44.415Z,2.30
2022-09-09T05:13:05.937Z,2.10
2022-09-09T05:16:08.049Z,2.22
2022-09-09T05:19:10.201Z,2.50
2022-09-09T05:22:24.282Z,2.30
2022-09-09T05:25:28.763Z,2.30
2022-09-09T05:28:32.272Z,2.75
2022-09-09T05:31:35.117Z,2.40
2022-09-09T05:34:40.571Z,2.75
2022-09-09T05:37:42.750Z,2.63
2022-09-09T05:40:49.287Z,2.83
2022-09-09T05:43:51.760Z,2.70
2022-09-09T05:46:53.899Z,2.85
2022-09-09T05:49:56.482Z,3.30
2022-09-09T05:52:58.915Z,3.30
2022-09-09T05:56:11.292Z,3.13
2022-09-09T05:59:13.659Z,2.70
2022-09-09T06:02:15.685Z,3.08
2022-09-09T06:05:17.690Z,2.58
2022-09-09T06:08:19.742Z,3.10
2022-09-09T06:11:24.121Z,2.90
2022-09-09T06:14:28.407Z,2.90
2022-09-09T06:17:50.778Z,2.50
2022-09-09T06:21:12.488Z,2.50
2022-09-09T06:24:25.805Z,2.85
2022-09-09T06:27:31.873Z,3.28
2022-09-09T06:30:36.242Z,3.40
2022-09-09T06:33:42.292Z,3.03
2022-09-09T06:36:45.451Z,3.42
2022-09-09T06:39:47.951Z,3.28
2022-09-09T06:42:50.101Z,3.13
2022-09-09T06:46:23.253Z,2.75
2022-09-09T06:49:26.741Z,2.83
2022-09-09T06:52:29.567Z,2.58
2022-09-09T06:55:32.458Z,2.88
2022-09-09T06:58:35.700Z,2.45
2022-09-09T07:01:43.268Z,2.25
2022-09-09T07:04:48.085Z,2.58
2022-09-09T07:07:50.475Z,2.55
2022-09-09T07:10:55.155Z,2.35
2022-09-09T07:13:59.311Z,3.00
2022-09-09T07:17:01.688Z,3.03
2022-09-09T07:20:09.241Z,3.25
2022-09-09T07:23:14.438Z,2.70
2022-09-09T07:26:21.639Z,2.95
2022-09-09T07:29:32.984Z,3.10
2022-09-09T07:33:13.878Z,2.78
2022-09-09T07:36:55.346Z,4.22
2022-09-09T07:40:30.763Z,3.75
2022-09-09T07:43:58.052Z,4.95
2022-09-09T07:47:19.689Z,3.70
2022-09-09T07:50:34.060Z,3.70
2022-09-09T07:54:34.114Z,4.07
2022-09-09T07:58:38.551Z,4.03
2022-09-09T08:01:58.412Z,3.35
2022-09-09T08:05:08.486Z,3.25
2022-09-09T08:08:13.452Z,2.78
2022-09-09T08:11:19.653Z,3.70
2022-09-09T08:14:21.662Z,4.23
2022-09-09T08:17:25.475Z,3.75
2022-09-09T08:20:29.175Z,3.88
2022-09-09T08:23:31.887Z,3.40
2022-09-09T08:26:36.794Z,3.38
2022-09-09T08:29:48.800Z,3.05
2022-09-09T08:32:53.939Z,2.17
2022-09-09T08:39:37.646Z,2.30
2022-09-09T08:43:22.565Z,2.10
2022-09-09T08:47:06.537Z,2.03
2022-09-09T08:50:24.826Z,2.00
2022-09-09T08:53:39.759Z,0.90
2022-09-09T08:56:41.650Z,1.50
2022-09-09T08:59:43.750Z,1.15
2022-09-09T09:03:12.161Z,1.55
2022-09-09T09:06:32.259Z,2.20
2022-09-09T09:09:44.660Z,1.80
2022-09-09T09:12:48.695Z,1.27
2022-09-09T09:16:03.977Z,1.50
2022-09-09T09:19:11.179Z,1.60
2022-09-09T09:22:23.540Z,1.42
2022-09-09T09:25:36.693Z,1.60
2022-09-09T09:28:43.397Z,1.30
2022-09-09T09:31:55.847Z,1.33
2022-09-09T09:34:59.923Z,1.30
2022-09-09T09:41:41.216Z,1.00
2022-09-09T09:44:44.934Z,0.90
2022-09-09T09:48:07.945Z,1.25
2022-09-09T09:51:17.209Z,1.10
2022-09-09T09:54:30.819Z,1.10
2022-09-09T09:57:39.629Z,0.88
2022-09-09T10:00:52.482Z,0.95
2022-09-09T10:04:03.621Z,0.90
2022-09-09T10:07:17.403Z,0.82
2022-09-09T10:10:28.185Z,0.70
2022-09-09T10:13:53.902Z,0.70
2022-09-09T10:17:18.163Z,0.82
2022-09-09T10:20:34.119Z,0.88
2022-09-09T10:23:54.627Z,0.70
2022-09-09T10:27:32.473Z,0.90
2022-09-09T10:30:49.108Z,0.70
2022-09-09T10:33:55.034Z,0.50
2022-09-09T10:36:56.833Z,0.68
2022-09-09T10:40:27.700Z,0.50
2022-09-09T10:44:08.501Z,0.50
2022-09-09T10:47:10.266Z,0.50
2022-09-09T10:50:57.062Z,0.47
2022-09-09T10:54:27.665Z,0.80
2022-09-09T10:57:40.698Z,0.60
2022-09-09T11:00:48.946Z,0.75
2022-09-09T11:03:56.741Z,0.45
2022-09-09T11:06:59.885Z,0.45
2022-09-09T11:10:04.755Z,0.50
2022-09-09T11:13:13.321Z,0.63
2022-09-09T11:16:53.816Z,0.50
2022-09-09T11:19:56.208Z,0.60
2022-09-09T11:22:58.126Z,0.50
2022-09-09T11:26:04.841Z,0.40
2022-09-09T11:29:30.569Z,0.57
2022-09-09T11:33:25.943Z,0.60
2022-09-09T11:36:46.036Z,0.63
2022-09-09T11:40:29.408Z,0.60
2022-09-09T11:43:43.018Z,0.50
2022-09-09T11:46:53.489Z,0.55
2022-09-09T11:49:55.247Z,0.47
2022-09-09T11:53:21.430Z,0.50
2022-09-09T11:56:45.056Z,0.65
2022-09-09T11:59:56.207Z,0.70
2022-09-09T12:02:58.140Z,0.57
2022-09-09T12:06:00.999Z,0.45
2022-09-09T12:09:16.667Z,0.50
2022-09-09T12:12:30.390Z,0.90
2022-09-09T12:15:32.673Z,0.80
2022-09-09T12:18:40.713Z,0.60
2022-09-09T12:22:32.092Z,0.60
2022-09-09T12:25:54.406Z,0.60
2022-09-09T12:29:08.510Z,0.50
2022-09-09T12:32:21.945Z,0.60
2022-09-09T12:35:27.779Z,0.60
2022-09-09T12:38:42.642Z,0.55
2022-09-09T12:41:57.931Z,0.50
2022-09-09T12:45:02.350Z,0.60
2022-09-09T12:48:09.778Z,0.60
2022-09-09T12:51:26.857Z,0.80
2022-09-09T12:54:31.087Z,0.60
2022-09-09T12:57:37.941Z,0.60
2022-09-09T13:00:53.951Z,0.63
2022-09-09T13:03:56.856Z,0.90
2022-09-09T13:07:11.203Z,0.70
2022-09-09T13:10:36.190Z,0.50
2022-09-09T13:13:41.990Z,0.53
2022-09-09T13:16:44.018Z,0.60
2022-09-09T13:19:51.545Z,0.70
2022-09-09T13:22:55.460Z,0.60
2022-09-09T13:26:02.402Z,0.70
2022-09-09T13:29:20.368Z,0.80
2022-09-09T13:32:23.388Z,0.90
2022-09-09T13:35:26.392Z,0.70
2022-09-09T13:38:30.905Z,0.55
2022-09-09T13:41:38.171Z,0.50
2022-09-09T13:44:41.164Z,0.60
2022-09-09T13:47:43.280Z,0.68
2022-09-09T13:50:55.634Z,0.73
2022-09-09T13:53:58.853Z,0.77
2022-09-09T13:57:02.270Z,0.60
2022-09-09T14:00:05.785Z,0.50
2022-09-09T14:03:09.318Z,0.60
2022-09-09T14:06:12.026Z,0.60
2022-09-09T14:09:16.732Z,0.60
2022-09-09T14:12:19.511Z,0.88
2022-09-09T14:15:23.071Z,0.50
2022-09-09T14:18:26.566Z,0.50
2022-09-09T14:21:28.830Z,0.50
2022-09-09T14:24:30.656Z,0.60
2022-09-09T14:27:33.828Z,0.68
2022-09-09T14:30:35.886Z,0.80
2022-09-09T14:33:38.235Z,0.60
2022-09-09T14:36:40.186Z,0.50
2022-09-09T14:39:45.419Z,0.70
2022-09-09T14:42:49.844Z,0.40
2022-09-09T14:45:52.608Z,0.52
2022-09-09T14:51:56.894Z,0.40
2022-09-09T14:54:58.970Z,0.70
2022-09-09T14:58:01.307Z,0.50
2022-09-09T15:01:07.869Z,0.40
2022-09-09T15:04:13.090Z,0.40
2022-09-09T15:07:15.040Z,0.40
2022-09-09T15:10:18.303Z,0.73
2022-09-09T15:13:20.266Z,0.50
2022-09-09T15:16:25.418Z,0.60
2022-09-09T15:19:27.289Z,0.30
2022-09-09T15:22:29.202Z,0.43
2022-09-09T15:25:31.151Z,0.40
2022-09-09T15:28:41.563Z,0.57
2022-09-09T15:31:43.517Z,0.70
2022-09-09T15:34:45.281Z,0.40
2022-09-09T15:37:47.238Z,0.60
2022-09-09T15:40:55.678Z,0.50
2022-09-09T15:43:57.981Z,0.55
2022-09-09T15:47:00.205Z,0.70
2022-09-09T15:50:02.433Z,0.65
2022-09-09T15:53:04.725Z,0.77
2022-09-09T15:56:09.760Z,0.45
2022-09-09T15:59:12.635Z,0.50
2022-09-09T16:02:14.489Z,0.50
2022-09-09T16:05:16.961Z,0.60
2022-09-09T16:08:19.495Z,0.50
2022-09-09T16:11:26.090Z,0.47
2022-09-09T16:14:28.538Z,0.60
2022-09-09T16:17:30.443Z,0.60
2022-09-09T16:20:34.509Z,0.90
2022-09-09T16:23:36.665Z,0.80
2022-09-09T16:26:41.019Z,0.60
2022-09-09T16:29:42.998Z,0.93
2022-09-09T16:32:45.202Z,0.60
2022-09-09T16:35:47.266Z,0.75
2022-09-09T16:38:54.883Z,0.80
2022-09-09T16:41:58.538Z,0.68
2022-09-09T16:45:00.382Z,0.88
2022-09-09T16:48:02.542Z,0.75
2022-09-09T16:51:07.084Z,1.30
2022-09-09T16:54:10.656Z,1.00
2022-09-09T16:57:12.515Z,1.15
2022-09-09T17:00:14.588Z,1.17
2022-09-09T17:03:17.437Z,1.23
2022-09-09T17:06:19.392Z,1.30
2022-09-09T17:09:22.517Z,0.98
2022-09-09T17:12:24.401Z,1.02
2022-09-09T17:15:26.541Z,0.80
2022-09-09T17:18:29.364Z,0.95
2022-09-09T17:21:32.568Z,0.95
2022-09-09T17:24:35.521Z,1.05
2022-09-09T17:27:37.528Z,0.93
2022-09-09T17:30:39.707Z,1.00
2022-09-09T17:33:44.026Z,0.80
2022-09-09T17:36:46.057Z,1.25
2022-09-09T17:39:48.106Z,1.05
2022-09-09T17:42:50.301Z,1.02
2022-09-09T17:45:52.252Z,1.30
2022-09-09T17:48:57.997Z,1.08
2022-09-09T17:51:59.872Z,1.58
2022-09-09T17:55:03.476Z,1.40
2022-09-09T17:58:06.674Z,1.33
2022-09-09T18:01:14.301Z,1.13
2022-09-09T18:04:25.005Z,1.27
2022-09-09T18:07:27.287Z,1.02
2022-09-09T18:10:29.238Z,1.63
2022-09-09T18:13:31.294Z,1.42
2022-09-09T18:16:36.541Z,1.08
2022-09-09T18:19:38.841Z,1.58
2022-09-09T18:22:41.017Z,1.30
2022-09-09T18:25:43.619Z,1.00
2022-09-09T18:28:50.688Z,1.17
2022-09-09T18:31:54.483Z,1.30
2022-09-09T18:34:59.564Z,1.05
2022-09-09T18:38:01.825Z,1.60
2022-09-09T18:41:25.526Z,1.20
2022-09-09T18:44:30.946Z,1.30
2022-09-09T18:47:33.325Z,0.77
2022-09-09T18:50:35.580Z,1.15
2022-09-09T18:53:38.864Z,0.95
2022-09-09T18:56:42.104Z,1.00
2022-09-09T18:59:44.552Z,1.00
2022-09-09T19:02:54.076Z,1.02
2022-09-09T19:06:06.886Z,0.95
2022-09-09T19:09:17.329Z,0.70
2022-09-09T19:12:23.866Z,1.00
2022-09-09T19:15:27.059Z,1.00
2022-09-09T19:18:31.483Z,1.00
2022-09-09T19:21:37.436Z,0.75
2022-09-09T19:24:41.022Z,0.90
2022-09-09T19:27:43.555Z,1.10
2022-09-09T19:30:47.967Z,0.85
2022-09-09T19:33:51.152Z,0.90
2022-09-09T19:36:53.633Z,0.70
2022-09-09T19:39:55.834Z,1.00
2022-09-09T19:43:07.686Z,1.33
2022-09-09T19:46:11.747Z,1.00
2022-09-09T19:49:15.679Z,1.20
2022-09-09T19:52:18.120Z,0.93
2022-09-09T19:55:20.211Z,0.80
2022-09-09T19:58:22.203Z,0.95
2022-09-09T20:01:30.038Z,1.20
2022-09-09T20:04:32.118Z,1.02
2022-09-09T20:07:33.916Z,1.10
2022-09-09T20:10:35.690Z,1.08
2022-09-09T20:13:39.114Z,1.10
2022-09-09T20:16:41.485Z,1.10
2022-09-09T20:19:44.433Z,1.25
2022-09-09T20:22:47.149Z,1.20
2022-09-09T20:25:49.234Z,1.30
2022-09-09T20:28:53.586Z,1.20
2022-09-09T20:31:55.617Z,1.13
2022-09-09T20:34:58.219Z,1.50
2022-09-09T20:38:01.302Z,1.15
2022-09-09T20:41:04.618Z,1.38
2022-09-09T20:44:14.328Z,1.27
2022-09-09T20:47:16.977Z,1.65
2022-09-09T20:50:18.831Z,1.63
2022-09-09T20:53:21.256Z,1.73
2022-09-09T20:56:27.346Z,1.15
2022-09-09T20:59:31.434Z,1.27
2022-09-09T21:02:33.385Z,1.40
2022-09-09T21:05:35.330Z,1.58
2022-09-09T21:08:37.710Z,1.48
2022-09-09T21:11:39.835Z,1.27
2022-09-09T21:14:41.592Z,1.25
2022-09-09T21:17:43.422Z,0.90
2022-09-09T21:20:46.142Z,1.05
2022-09-09T21:23:54.877Z,1.20
2022-09-09T21:26:56.772Z,1.00
2022-09-09T21:29:58.633Z,0.85
2022-09-09T21:33:01.655Z,1.10
2022-09-09T21:36:07.207Z,0.95
2022-09-09T21:39:09.254Z,1.42
2022-09-09T21:42:11.051Z,0.80
2022-09-09T21:45:13.290Z,1.20
2022-09-09T21:48:16.606Z,1.00
2022-09-09T21:51:18.985Z,0.80
2022-09-09T21:54:20.905Z,0.80
2022-09-09T21:57:24.962Z,0.75
2022-09-09T22:00:27.020Z,0.98
2022-09-09T22:03:29.054Z,1.10
2022-09-09T22:06:30.884Z,1.40
2022-09-09T22:09:33.887Z,1.20
2022-09-09T22:12:36.702Z,1.05
2022-09-09T22:15:44.545Z,0.95
2022-09-09T22:18:53.821Z,1.08
2022-09-09T22:24:57.259Z,1.13
2022-09-09T22:27:58.965Z,1.10
2022-09-09T22:31:01.074Z,0.77
2022-09-09T22:34:03.487Z,1.63
2022-09-09T22:37:06.002Z,1.10
2022-09-09T22:40:09.740Z,1.10
2022-09-09T22:43:16.797Z,1.42
2022-09-09T22:46:18.980Z,1.60
2022-09-09T22:49:20.720Z,1.30
2022-09-09T22:52:24.133Z,1.38
2022-09-09T22:55:26.852Z,0.98
2022-09-09T22:58:30.066Z,1.00
2022-09-09T23:01:32.226Z,1.23
2022-09-09T23:04:34.160Z,0.80
2022-09-09T23:07:36.776Z,0.82
2022-09-09T23:10:42.647Z,0.70
2022-09-09T23:13:50.186Z,0.73
2022-09-09T23:16:52.681Z,0.63
2022-09-09T23:19:56.391Z,0.82
2022-09-09T23:22:58.070Z,0.80
2022-09-09T23:26:07.180Z,0.60
2022-09-09T23:29:10.674Z,0.70
2022-09-09T23:32:12.316Z,0.70
2022-09-09T23:35:14.151Z,0.70
2022-09-09T23:38:17.013Z,0.65
2022-09-09T23:41:21.109Z,0.70
2022-09-09T23:44:23.390Z,0.70
2022-09-09T23:47:25.539Z,0.68
2022-09-09T23:50:27.479Z,0.85
2022-09-09T23:53:29.225Z,0.70
2022-09-09T23:56:37.841Z,0.70
2022-09-09T23:59:39.795Z,0.70
